sensor_id;sensor_type;location;lat;lon;timestamp;pressure;altitude;pressure_sealevel;temperature;humidity
38400;BME280;24180;42.676;23.320;2023-03-22T00:01:31;94354.28;;;8.21;100.00
38400;BME280;24180;42.676;23.320;2023-03-22T00:03:57;94363.78;;;8.40;100.00
38400;BME280;24180;42.676;23.320;2023-03-22T00:06:23;94366.91;;;8.34;100.00
38400;BME280;24180;42.676;23.320;2023-03-22T00:08:50;94364.91;;;8.65;100.00
38400;BME280;24180;42.676;23.320;2023-03-22T00:11:17;94338.66;;;8.42;100.00
38400;BME280;24180;42.676;23.320;2023-03-22T00:13:43;94368.09;;;8.39;100.00
38400;BME280;24180;42.676;23.320;2023-03-22T00:16:11;94332.03;;;8.11;100.00
38400;BME280;24180;42.676;23.320;2023-03-22T00:18:36;94368.81;;;8.22;100.00
38400;BME280;24180;42.676;23.320;2023-03-22T00:21:02;94370.16;;;8.17;100.00
38400;BME280;24180;42.676;23.320;2023-03-22T00:23:28;94371.25;;;8.24;100.00
38400;BME280;24180;42.676;23.320;2023-03-22T00:25:54;94365.00;;;8.26;100.00
38400;BME280;24180;42.676;23.320;2023-03-22T00:28:20;94331.69;;;8.42;100.00
38400;BME280;24180;42.676;23.320;2023-03-22T00:30:57;94348.38;;;8.58;100.00
38400;BME280;24180;42.676;23.320;2023-03-22T00:33:24;94335.91;;;8.53;100.00
38400;BME280;24180;42.676;23.320;2023-03-22T00:35:51;94330.75;;;8.43;100.00
38400;BME280;24180;42.676;23.320;2023-03-22T00:38:17;94323.13;;;8.52;100.00
38400;BME280;24180;42.676;23.320;2023-03-22T00:40:43;94354.72;;;8.63;100.00
38400;BME280;24180;42.676;23.320;2023-03-22T00:43:08;94337.13;;;8.49;100.00
38400;BME280;24180;42.676;23.320;2023-03-22T00:45:34;94351.31;;;8.63;100.00
38400;BME280;24180;42.676;23.320;2023-03-22T00:48:09;94347.97;;;8.53;100.00
38400;BME280;24180;42.676;23.320;2023-03-22T00:50:36;94321.97;;;8.36;100.00
38400;BME280;24180;42.676;23.320;2023-03-22T00:53:02;94341.88;;;8.54;100.00
38400;BME280;24180;42.676;23.320;2023-03-22T00:55:30;94321.94;;;8.46;100.00
38400;BME280;24180;42.676;23.320;2023-03-22T00:57:55;94351.38;;;8.53;100.00
38400;BME280;24180;42.676;23.320;2023-03-22T01:00:21;94329.41;;;8.39;100.00
38400;BME280;24180;42.676;23.320;2023-03-22T01:02:47;94329.69;;;8.27;100.00
38400;BME280;24180;42.676;23.320;2023-03-22T01:05:13;94350.34;;;8.36;100.00
38400;BME280;24180;42.676;23.320;2023-03-22T01:07:41;94313.72;;;8.14;100.00
38400;BME280;24180;42.676;23.320;2023-03-22T01:10:08;94276.16;;;7.92;100.00
38400;BME280;24180;42.676;23.320;2023-03-22T01:12:34;94338.91;;;8.39;100.00
38400;BME280;24180;42.676;23.320;2023-03-22T01:15:00;94336.47;;;8.28;100.00
38400;BME280;24180;42.676;23.320;2023-03-22T01:17:25;94339.22;;;8.26;100.00
38400;BME280;24180;42.676;23.320;2023-03-22T01:19:51;94320.19;;;8.27;100.00
38400;BME280;24180;42.676;23.320;2023-03-22T01:22:16;94329.41;;;8.39;100.00
38400;BME280;24180;42.676;23.320;2023-03-22T01:24:41;94311.50;;;8.28;100.00
38400;BME280;24180;42.676;23.320;2023-03-22T01:27:07;94330.38;;;8.38;100.00
38400;BME280;24180;42.676;23.320;2023-03-22T01:29:32;94305.00;;;8.24;100.00
38400;BME280;24180;42.676;23.320;2023-03-22T01:31:59;94332.00;;;8.39;100.00
38400;BME280;24180;42.676;23.320;2023-03-22T01:34:25;94333.22;;;8.45;100.00
38400;BME280;24180;42.676;23.320;2023-03-22T01:36:51;94294.16;;;8.21;100.00
38400;BME280;24180;42.676;23.320;2023-03-22T01:39:16;94255.41;;;7.93;100.00
38400;BME280;24180;42.676;23.320;2023-03-22T01:41:41;94337.59;;;8.25;100.00
38400;BME280;24180;42.676;23.320;2023-03-22T01:44:14;94332.72;;;8.22;100.00
38400;BME280;24180;42.676;23.320;2023-03-22T01:46:41;94299.91;;;8.05;100.00
38400;BME280;24180;42.676;23.320;2023-03-22T01:49:12;94263.19;;;7.74;100.00
38400;BME280;24180;42.676;23.320;2023-03-22T01:51:39;94327.03;;;8.09;100.00
38400;BME280;24180;42.676;23.320;2023-03-22T01:54:13;94319.28;;;8.09;100.00
38400;BME280;24180;42.676;23.320;2023-03-22T01:56:41;94321.19;;;8.07;100.00
38400;BME280;24180;42.676;23.320;2023-03-22T01:59:09;94323.22;;;8.13;100.00
38400;BME280;24180;42.676;23.320;2023-03-22T02:01:36;94329.44;;;8.11;100.00
38400;BME280;24180;42.676;23.320;2023-03-22T02:04:14;94297.16;;;8.07;100.00
38400;BME280;24180;42.676;23.320;2023-03-22T02:06:42;94307.06;;;8.11;100.00
38400;BME280;24180;42.676;23.320;2023-03-22T02:09:10;94322.13;;;8.16;100.00
38400;BME280;24180;42.676;23.320;2023-03-22T02:11:41;94327.25;;;8.25;100.00
38400;BME280;24180;42.676;23.320;2023-03-22T02:25:03;94321.88;;;8.09;100.00
38400;BME280;24180;42.676;23.320;2023-03-22T02:30:31;94334.06;;;8.07;100.00
38400;BME280;24180;42.676;23.320;2023-03-22T02:33:23;94332.47;;;8.06;100.00
38400;BME280;24180;42.676;23.320;2023-03-22T02:36:11;94335.47;;;8.02;100.00
38400;BME280;24180;42.676;23.320;2023-03-22T02:41:59;94317.00;;;7.87;100.00
38400;BME280;24180;42.676;23.320;2023-03-22T02:47:36;94326.09;;;7.91;100.00
38400;BME280;24180;42.676;23.320;2023-03-22T02:52:51;94350.94;;;8.02;100.00
38400;BME280;24180;42.676;23.320;2023-03-22T02:55:37;94343.72;;;7.95;100.00
38400;BME280;24180;42.676;23.320;2023-03-22T02:58:26;94349.28;;;8.00;100.00
38400;BME280;24180;42.676;23.320;2023-03-22T03:00:56;94345.25;;;7.98;100.00
38400;BME280;24180;42.676;23.320;2023-03-22T03:03:26;94342.66;;;7.88;100.00
38400;BME280;24180;42.676;23.320;2023-03-22T03:05:56;94327.44;;;7.95;100.00
38400;BME280;24180;42.676;23.320;2023-03-22T03:08:24;94337.34;;;8.09;100.00
38400;BME280;24180;42.676;23.320;2023-03-22T03:10:52;94342.78;;;7.87;100.00
38400;BME280;24180;42.676;23.320;2023-03-22T03:13:19;94350.94;;;8.02;100.00
38400;BME280;24180;42.676;23.320;2023-03-22T03:15:50;94344.66;;;8.04;100.00
38400;BME280;24180;42.676;23.320;2023-03-22T03:18:50;94347.50;;;8.11;100.00
38400;BME280;24180;42.676;23.320;2023-03-22T03:24:43;94341.97;;;7.96;100.00
38400;BME280;24180;42.676;23.320;2023-03-22T03:27:27;94338.97;;;8.00;100.00
38400;BME280;24180;42.676;23.320;2023-03-22T03:30:07;94364.88;;;7.99;100.00
38400;BME280;24180;42.676;23.320;2023-03-22T03:32:47;94327.97;;;7.98;100.00
38400;BME280;24180;42.676;23.320;2023-03-22T03:35:20;94356.59;;;8.15;100.00
38400;BME280;24180;42.676;23.320;2023-03-22T03:37:56;94352.81;;;8.09;100.00
38400;BME280;24180;42.676;23.320;2023-03-22T03:40:27;94342.25;;;7.93;100.00
38400;BME280;24180;42.676;23.320;2023-03-22T03:42:55;94354.28;;;8.12;100.00
38400;BME280;24180;42.676;23.320;2023-03-22T03:45:23;94358.50;;;8.22;100.00
38400;BME280;24180;42.676;23.320;2023-03-22T03:47:50;94364.19;;;8.26;100.00
38400;BME280;24180;42.676;23.320;2023-03-22T03:50:22;94357.28;;;8.26;100.00
38400;BME280;24180;42.676;23.320;2023-03-22T03:52:48;94355.22;;;8.20;100.00
38400;BME280;24180;42.676;23.320;2023-03-22T03:55:14;94354.56;;;8.09;100.00
38400;BME280;24180;42.676;23.320;2023-03-22T03:57:40;94343.59;;;7.97;100.00
38400;BME280;24180;42.676;23.320;2023-03-22T04:00:06;94360.72;;;7.98;100.00
38400;BME280;24180;42.676;23.320;2023-03-22T04:02:31;94373.44;;;7.99;100.00
38400;BME280;24180;42.676;23.320;2023-03-22T04:04:57;94365.44;;;8.02;100.00
38400;BME280;24180;42.676;23.320;2023-03-22T04:07:23;94368.00;;;8.02;100.00
38400;BME280;24180;42.676;23.320;2023-03-22T04:09:48;94367.22;;;8.02;100.00
38400;BME280;24180;42.676;23.320;2023-03-22T04:12:14;94385.66;;;8.07;100.00
38400;BME280;24180;42.676;23.320;2023-03-22T04:14:39;94372.91;;;8.06;100.00
38400;BME280;24180;42.676;23.320;2023-03-22T04:17:06;94362.59;;;7.86;100.00
38400;BME280;24180;42.676;23.320;2023-03-22T04:19:31;94357.19;;;7.89;100.00
38400;BME280;24180;42.676;23.320;2023-03-22T04:21:57;94382.41;;;8.05;100.00
38400;BME280;24180;42.676;23.320;2023-03-22T04:24:22;94365.72;;;7.90;100.00
38400;BME280;24180;42.676;23.320;2023-03-22T04:26:47;94350.50;;;7.87;100.00
38400;BME280;24180;42.676;23.320;2023-03-22T04:29:13;94359.59;;;7.91;100.00
38400;BME280;24180;42.676;23.320;2023-03-22T04:31:39;94350.78;;;7.84;100.00
38400;BME280;24180;42.676;23.320;2023-03-22T04:34:05;94382.13;;;8.08;100.00
38400;BME280;24180;42.676;23.320;2023-03-22T04:36:35;94382.13;;;7.98;100.00
38400;BME280;24180;42.676;23.320;2023-03-22T04:39:12;94386.75;;;8.05;100.00
38400;BME280;24180;42.676;23.320;2023-03-22T04:41:38;94399.88;;;8.11;100.00
38400;BME280;24180;42.676;23.320;2023-03-22T04:44:04;94365.56;;;7.91;100.00
38400;BME280;24180;42.676;23.320;2023-03-22T04:46:32;94369.66;;;7.94;100.00
38400;BME280;24180;42.676;23.320;2023-03-22T04:48:58;94368.16;;;7.91;100.00
38400;BME280;24180;42.676;23.320;2023-03-22T04:51:25;94377.38;;;8.04;100.00
38400;BME280;24180;42.676;23.320;2023-03-22T04:53:50;94402.88;;;8.16;100.00
38400;BME280;24180;42.676;23.320;2023-03-22T04:56:16;94401.94;;;8.08;100.00
38400;BME280;24180;42.676;23.320;2023-03-22T04:58:43;94409.50;;;8.19;100.00
38400;BME280;24180;42.676;23.320;2023-03-22T05:01:09;94375.34;;;7.97;100.00
38400;BME280;24180;42.676;23.320;2023-03-22T05:03:36;94397.88;;;8.05;100.00
38400;BME280;24180;42.676;23.320;2023-03-22T05:06:04;94392.03;;;8.03;100.00
38400;BME280;24180;42.676;23.320;2023-03-22T05:08:31;94392.88;;;7.94;100.00
38400;BME280;24180;42.676;23.320;2023-03-22T05:11:00;94415.91;;;8.24;100.00
38400;BME280;24180;42.676;23.320;2023-03-22T05:13:28;94404.09;;;8.12;100.00
38400;BME280;24180;42.676;23.320;2023-03-22T05:15:54;94422.84;;;8.14;100.00
38400;BME280;24180;42.676;23.320;2023-03-22T05:18:21;94411.44;;;7.88;100.00
38400;BME280;24180;42.676;23.320;2023-03-22T05:20:49;94397.06;;;7.85;100.00
38400;BME280;24180;42.676;23.320;2023-03-22T05:23:15;94393.38;;;8.07;100.00
38400;BME280;24180;42.676;23.320;2023-03-22T05:25:49;94419.34;;;8.34;100.00
38400;BME280;24180;42.676;23.320;2023-03-22T05:28:17;94408.69;;;8.28;100.00
38400;BME280;24180;42.676;23.320;2023-03-22T05:30:47;94404.09;;;8.31;100.00
38400;BME280;24180;42.676;23.320;2023-03-22T05:33:13;94417.41;;;8.36;100.00
38400;BME280;24180;42.676;23.320;2023-03-22T05:35:41;94415.13;;;8.33;100.00
38400;BME280;24180;42.676;23.320;2023-03-22T05:38:07;94433.84;;;8.45;100.00
38400;BME280;24180;42.676;23.320;2023-03-22T05:40:33;94412.25;;;8.36;100.00
38400;BME280;24180;42.676;23.320;2023-03-22T05:42:59;94428.66;;;8.45;100.00
38400;BME280;24180;42.676;23.320;2023-03-22T05:45:24;94414.84;;;8.36;100.00
38400;BME280;24180;42.676;23.320;2023-03-22T05:47:50;94375.75;;;8.12;100.00
38400;BME280;24180;42.676;23.320;2023-03-22T05:50:18;94447.25;;;8.49;100.00
38400;BME280;24180;42.676;23.320;2023-03-22T05:52:44;94434.25;;;8.40;100.00
38400;BME280;24180;42.676;23.320;2023-03-22T05:55:11;94453.53;;;8.46;100.00
38400;BME280;24180;42.676;23.320;2023-03-22T05:57:38;94444.72;;;8.29;100.00
38400;BME280;24180;42.676;23.320;2023-03-22T06:00:07;94435.19;;;8.20;100.00
38400;BME280;24180;42.676;23.320;2023-03-22T06:02:44;94452.00;;;8.24;100.00
38400;BME280;24180;42.676;23.320;2023-03-22T06:05:10;94459.22;;;8.40;100.00
38400;BME280;24180;42.676;23.320;2023-03-22T06:07:37;94467.22;;;8.56;100.00
38400;BME280;24180;42.676;23.320;2023-03-22T06:10:04;94466.56;;;8.44;100.00
38400;BME280;24180;42.676;23.320;2023-03-22T06:12:30;94449.59;;;8.32;100.00
38400;BME280;24180;42.676;23.320;2023-03-22T06:14:56;94462.22;;;8.45;100.00
38400;BME280;24180;42.676;23.320;2023-03-22T06:17:22;94424.34;;;8.26;100.00
38400;BME280;24180;42.676;23.320;2023-03-22T06:19:48;94466.41;;;8.56;100.00
38400;BME280;24180;42.676;23.320;2023-03-22T06:22:14;94461.88;;;8.77;100.00
38400;BME280;24180;42.676;23.320;2023-03-22T06:24:40;94439.59;;;8.76;100.00
38400;BME280;24180;42.676;23.320;2023-03-22T06:27:07;94468.72;;;9.05;100.00
38400;BME280;24180;42.676;23.320;2023-03-22T06:29:32;94447.75;;;8.81;100.00
38400;BME280;24180;42.676;23.320;2023-03-22T06:31:58;94480.53;;;9.08;100.00
38400;BME280;24180;42.676;23.320;2023-03-22T06:34:24;94493.25;;;9.28;100.00
38400;BME280;24180;42.676;23.320;2023-03-22T06:36:50;94459.16;;;9.15;100.00
38400;BME280;24180;42.676;23.320;2023-03-22T06:39:16;94468.56;;;9.16;100.00
38400;BME280;24180;42.676;23.320;2023-03-22T06:41:41;94483.59;;;9.30;100.00
38400;BME280;24180;42.676;23.320;2023-03-22T06:44:06;94492.41;;;9.37;100.00
38400;BME280;24180;42.676;23.320;2023-03-22T06:46:32;94499.44;;;9.45;100.00
38400;BME280;24180;42.676;23.320;2023-03-22T06:48:57;94477.72;;;9.38;100.00
38400;BME280;24180;42.676;23.320;2023-03-22T06:51:23;94506.50;;;9.43;100.00
38400;BME280;24180;42.676;23.320;2023-03-22T06:53:49;94480.72;;;9.33;100.00
38400;BME280;24180;42.676;23.320;2023-03-22T06:56:14;94508.53;;;9.49;100.00
38400;BME280;24180;42.676;23.320;2023-03-22T06:58:40;94485.72;;;9.35;100.00
38400;BME280;24180;42.676;23.320;2023-03-22T07:01:05;94509.47;;;9.58;100.00
38400;BME280;24180;42.676;23.320;2023-03-22T07:03:31;94492.13;;;9.40;100.00
38400;BME280;24180;42.676;23.320;2023-03-22T07:06:01;94500.50;;;9.52;100.00
38400;BME280;24180;42.676;23.320;2023-03-22T07:08:26;94493.41;;;9.54;100.00
38400;BME280;24180;42.676;23.320;2023-03-22T07:10:52;94497.09;;;9.52;100.00
38400;BME280;24180;42.676;23.320;2023-03-22T07:13:17;94513.47;;;9.70;100.00
38400;BME280;24180;42.676;23.320;2023-03-22T07:15:43;94524.81;;;9.86;100.00
38400;BME280;24180;42.676;23.320;2023-03-22T07:18:08;94511.72;;;9.88;100.00
38400;BME280;24180;42.676;23.320;2023-03-22T07:20:34;94512.25;;;9.92;100.00
38400;BME280;24180;42.676;23.320;2023-03-22T07:23:03;94515.66;;;9.92;100.00
38400;BME280;24180;42.676;23.320;2023-03-22T07:25:28;94533.53;;;9.85;100.00
38400;BME280;24180;42.676;23.320;2023-03-22T07:27:54;94533.47;;;9.95;100.00
38400;BME280;24180;42.676;23.320;2023-03-22T07:30:20;94518.53;;;9.89;100.00
38400;BME280;24180;42.676;23.320;2023-03-22T07:32:46;94525.22;;;10.09;100.00
38400;BME280;24180;42.676;23.320;2023-03-22T07:35:11;94507.50;;;10.14;100.00
38400;BME280;24180;42.676;23.320;2023-03-22T07:37:37;94514.88;;;10.09;100.00
38400;BME280;24180;42.676;23.320;2023-03-22T07:40:03;94543.16;;;10.20;100.00
38400;BME280;24180;42.676;23.320;2023-03-22T07:42:29;94532.41;;;10.15;100.00
38400;BME280;24180;42.676;23.320;2023-03-22T07:44:55;94533.63;;;10.11;100.00
38400;BME280;24180;42.676;23.320;2023-03-22T07:47:21;94541.72;;;9.81;100.00
38400;BME280;24180;42.676;23.320;2023-03-22T07:49:47;94538.34;;;9.44;100.00
38400;BME280;24180;42.676;23.320;2023-03-22T07:52:12;94548.41;;;9.47;100.00
38400;BME280;24180;42.676;23.320;2023-03-22T07:54:37;94551.84;;;9.37;100.00
38400;BME280;24180;42.676;23.320;2023-03-22T07:57:03;94544.25;;;9.63;100.00
38400;BME280;24180;42.676;23.320;2023-03-22T07:59:29;94554.25;;;9.76;100.00
38400;BME280;24180;42.676;23.320;2023-03-22T08:01:55;94548.31;;;9.66;100.00
38400;BME280;24180;42.676;23.320;2023-03-22T08:04:21;94526.75;;;9.48;100.00
38400;BME280;24180;42.676;23.320;2023-03-22T08:06:47;94555.13;;;9.67;100.00
38400;BME280;24180;42.676;23.320;2023-03-22T08:09:13;94551.84;;;9.74;100.00
38400;BME280;24180;42.676;23.320;2023-03-22T08:11:38;94539.78;;;9.56;100.00
38400;BME280;24180;42.676;23.320;2023-03-22T08:14:04;94534.41;;;9.39;100.00
38400;BME280;24180;42.676;23.320;2023-03-22T08:16:30;94537.03;;;9.67;100.00
38400;BME280;24180;42.676;23.320;2023-03-22T08:18:55;94560.84;;;9.70;100.00
38400;BME280;24180;42.676;23.320;2023-03-22T08:21:21;94548.44;;;9.74;100.00
38400;BME280;24180;42.676;23.320;2023-03-22T08:23:46;94547.72;;;9.81;100.00
38400;BME280;24180;42.676;23.320;2023-03-22T08:26:11;94555.38;;;9.73;100.00
38400;BME280;24180;42.676;23.320;2023-03-22T08:28:37;94552.25;;;9.97;100.00
38400;BME280;24180;42.676;23.320;2023-03-22T08:31:15;94520.25;;;9.71;100.00
38400;BME280;24180;42.676;23.320;2023-03-22T08:33:41;94566.28;;;9.95;100.00
38400;BME280;24180;42.676;23.320;2023-03-22T08:36:10;94570.59;;;10.04;100.00
38400;BME280;24180;42.676;23.320;2023-03-22T08:38:36;94540.91;;;9.80;100.00
38400;BME280;24180;42.676;23.320;2023-03-22T08:41:02;94576.16;;;10.09;100.00
38400;BME280;24180;42.676;23.320;2023-03-22T08:43:27;94573.47;;;10.01;100.00
38400;BME280;24180;42.676;23.320;2023-03-22T08:45:53;94565.63;;;9.93;100.00
38400;BME280;24180;42.676;23.320;2023-03-22T08:48:19;94570.34;;;9.97;100.00
38400;BME280;24180;42.676;23.320;2023-03-22T08:50:44;94562.50;;;9.89;100.00
38400;BME280;24180;42.676;23.320;2023-03-22T08:53:10;94551.22;;;9.90;100.00
38400;BME280;24180;42.676;23.320;2023-03-22T08:55:36;94585.28;;;10.03;100.00
38400;BME280;24180;42.676;23.320;2023-03-22T08:58:03;94586.50;;;9.81;100.00
38400;BME280;24180;42.676;23.320;2023-03-22T09:00:29;94564.91;;;9.63;100.00
38400;BME280;24180;42.676;23.320;2023-03-22T09:02:55;94581.16;;;9.83;100.00
38400;BME280;24180;42.676;23.320;2023-03-22T09:05:20;94577.44;;;9.95;100.00
38400;BME280;24180;42.676;23.320;2023-03-22T09:07:50;94577.06;;;9.90;100.00
38400;BME280;24180;42.676;23.320;2023-03-22T09:10:16;94549.91;;;9.76;100.00
38400;BME280;24180;42.676;23.320;2023-03-22T09:12:41;94571.06;;;9.90;100.00
38400;BME280;24180;42.676;23.320;2023-03-22T09:15:07;94575.00;;;9.94;100.00
38400;BME280;24180;42.676;23.320;2023-03-22T09:17:33;94580.94;;;9.76;100.00
38400;BME280;24180;42.676;23.320;2023-03-22T09:19:58;94563.63;;;9.50;100.00
38400;BME280;24180;42.676;23.320;2023-03-22T09:22:24;94569.31;;;9.53;100.00
38400;BME280;24180;42.676;23.320;2023-03-22T09:24:50;94572.41;;;9.66;100.00
38400;BME280;24180;42.676;23.320;2023-03-22T09:27:15;94587.88;;;9.76;100.00
38400;BME280;24180;42.676;23.320;2023-03-22T09:29:41;94574.06;;;9.58;100.00
38400;BME280;24180;42.676;23.320;2023-03-22T09:32:06;94588.88;;;9.65;100.00
38400;BME280;24180;42.676;23.320;2023-03-22T09:34:32;94575.84;;;9.57;100.00
38400;BME280;24180;42.676;23.320;2023-03-22T09:36:58;94580.59;;;9.62;100.00
38400;BME280;24180;42.676;23.320;2023-03-22T09:39:26;94569.88;;;9.47;100.00
38400;BME280;24180;42.676;23.320;2023-03-22T09:41:56;94549.50;;;9.44;100.00
38400;BME280;24180;42.676;23.320;2023-03-22T09:44:27;94549.66;;;9.33;100.00
38400;BME280;24180;42.676;23.320;2023-03-22T09:46:56;94565.84;;;9.35;100.00
38400;BME280;24180;42.676;23.320;2023-03-22T09:49:28;94569.22;;;9.45;100.00
38400;BME280;24180;42.676;23.320;2023-03-22T09:51:55;94554.81;;;9.43;100.00
38400;BME280;24180;42.676;23.320;2023-03-22T09:54:34;94581.53;;;9.61;100.00
38400;BME280;24180;42.676;23.320;2023-03-22T09:59:50;94585.28;;;9.76;100.00
38400;BME280;24180;42.676;23.320;2023-03-22T10:08:13;94588.16;;;10.00;100.00
38400;BME280;24180;42.676;23.320;2023-03-22T10:10:44;94574.53;;;9.80;100.00
38400;BME280;24180;42.676;23.320;2023-03-22T10:13:16;94595.94;;;10.00;100.00
38400;BME280;24180;42.676;23.320;2023-03-22T10:15:49;94574.63;;;9.88;100.00
38400;BME280;24180;42.676;23.320;2023-03-22T10:18:26;94600.16;;;10.01;100.00
38400;BME280;24180;42.676;23.320;2023-03-22T10:20:59;94561.25;;;9.66;100.00
38400;BME280;24180;42.676;23.320;2023-03-22T10:23:37;94602.63;;;9.93;100.00
38400;BME280;24180;42.676;23.320;2023-03-22T10:26:05;94603.34;;;10.13;100.00
38400;BME280;24180;42.676;23.320;2023-03-22T10:28:41;94582.78;;;10.11;100.00
38400;BME280;24180;42.676;23.320;2023-03-22T10:31:13;94583.38;;;10.15;100.00
38400;BME280;24180;42.676;23.320;2023-03-22T10:33:45;94596.19;;;10.34;100.00
38400;BME280;24180;42.676;23.320;2023-03-22T10:36:20;94605.00;;;10.41;100.00
38400;BME280;24180;42.676;23.320;2023-03-22T10:38:49;94584.72;;;10.37;100.00
38400;BME280;24180;42.676;23.320;2023-03-22T10:41:20;94578.38;;;10.49;100.00
38400;BME280;24180;42.676;23.320;2023-03-22T10:43:53;94600.44;;;10.70;100.00
38400;BME280;24180;42.676;23.320;2023-03-22T10:46:26;94597.47;;;10.65;100.00
38400;BME280;24180;42.676;23.320;2023-03-22T10:48:57;94598.94;;;10.68;100.00
38400;BME280;24180;42.676;23.320;2023-03-22T10:51:39;94589.63;;;10.57;100.00
38400;BME280;24180;42.676;23.320;2023-03-22T10:54:13;94599.69;;;10.43;100.00
38400;BME280;24180;42.676;23.320;2023-03-22T10:56:39;94595.16;;;10.45;100.00
38400;BME280;24180;42.676;23.320;2023-03-22T10:59:05;94613.97;;;10.64;100.00
38400;BME280;24180;42.676;23.320;2023-03-22T11:01:33;94605.59;;;10.53;100.00
38400;BME280;24180;42.676;23.320;2023-03-22T11:04:13;94614.41;;;10.60;100.00
38400;BME280;24180;42.676;23.320;2023-03-22T11:06:47;94603.25;;;10.77;100.00
38400;BME280;24180;42.676;23.320;2023-03-22T11:09:21;94600.66;;;10.77;100.00
38400;BME280;24180;42.676;23.320;2023-03-22T11:11:58;94561.88;;;10.32;100.00
38400;BME280;24180;42.676;23.320;2023-03-22T11:14:33;94592.00;;;10.51;100.00
38400;BME280;24180;42.676;23.320;2023-03-22T11:45:30;94559.06;;;10.61;100.00
38400;BME280;24180;42.676;23.320;2023-03-22T11:48:15;94571.94;;;10.53;100.00
38400;BME280;24180;42.676;23.320;2023-03-22T11:50:43;94561.22;;;10.48;100.00
38400;BME280;24180;42.676;23.320;2023-03-22T11:53:30;94576.06;;;10.63;100.00
38400;BME280;24180;42.676;23.320;2023-03-22T11:55:56;94557.94;;;10.28;100.00
38400;BME280;24180;42.676;23.320;2023-03-22T12:01:01;94572.66;;;10.27;100.00
38400;BME280;24180;42.676;23.320;2023-03-22T12:03:29;94558.25;;;10.25;100.00
38400;BME280;24180;42.676;23.320;2023-03-22T12:05:57;94568.47;;;10.44;100.00
38400;BME280;24180;42.676;23.320;2023-03-22T12:08:53;94581.81;;;10.67;100.00
38400;BME280;24180;42.676;23.320;2023-03-22T12:11:27;94582.97;;;10.55;100.00
38400;BME280;24180;42.676;23.320;2023-03-22T12:14:01;94558.75;;;10.64;100.00
38400;BME280;24180;42.676;23.320;2023-03-22T12:16:37;94577.63;;;10.92;100.00
38400;BME280;24180;42.676;23.320;2023-03-22T12:19:19;94571.03;;;10.79;100.00
38400;BME280;24180;42.676;23.320;2023-03-22T12:21:47;94561.28;;;10.91;100.00
38400;BME280;24180;42.676;23.320;2023-03-22T12:24:42;94579.94;;;11.20;100.00
38400;BME280;24180;42.676;23.320;2023-03-22T12:29:34;94574.25;;;11.17;100.00
38400;BME280;24180;42.676;23.320;2023-03-22T12:32:05;94574.28;;;11.43;100.00
38400;BME280;24180;42.676;23.320;2023-03-22T12:34:44;94591.09;;;11.39;100.00
38400;BME280;24180;42.676;23.320;2023-03-22T12:37:29;94588.47;;;11.64;100.00
38400;BME280;24180;42.676;23.320;2023-03-22T12:42:44;94573.38;;;12.19;100.00
38400;BME280;24180;42.676;23.320;2023-03-22T12:45:17;94569.47;;;12.32;100.00
38400;BME280;24180;42.676;23.320;2023-03-22T12:47:51;94553.25;;;12.30;100.00
38400;BME280;24180;42.676;23.320;2023-03-22T12:50:30;94584.00;;;12.58;100.00
38400;BME280;24180;42.676;23.320;2023-03-22T12:52:56;94577.31;;;12.56;100.00
38400;BME280;24180;42.676;23.320;2023-03-22T12:55:34;94573.44;;;12.68;100.00
38400;BME280;24180;42.676;23.320;2023-03-22T12:58:04;94589.56;;;12.88;100.00
38400;BME280;24180;42.676;23.320;2023-03-22T13:00:41;94593.13;;;12.79;100.00
38400;BME280;24180;42.676;23.320;2023-03-22T13:05:47;94587.56;;;12.57;100.00
38400;BME280;24180;42.676;23.320;2023-03-22T13:08:18;94591.59;;;12.52;100.00
38400;BME280;24180;42.676;23.320;2023-03-22T13:10:59;94592.16;;;12.63;100.00
38400;BME280;24180;42.676;23.320;2023-03-22T13:16:14;94583.63;;;12.37;100.00
38400;BME280;24180;42.676;23.320;2023-03-22T13:21:16;94587.59;;;12.07;100.00
38400;BME280;24180;42.676;23.320;2023-03-22T13:27:00;94589.25;;;12.16;100.00
38400;BME280;24180;42.676;23.320;2023-03-22T13:31:59;94553.59;;;12.27;100.00
38400;BME280;24180;42.676;23.320;2023-03-22T13:34:37;94572.50;;;12.77;100.00
38400;BME280;24180;42.676;23.320;2023-03-22T13:37:08;94582.13;;;13.25;100.00
38400;BME280;24180;42.676;23.320;2023-03-22T13:39:35;94573.09;;;13.68;100.00
38400;BME280;24180;42.676;23.320;2023-03-22T13:42:17;94562.94;;;13.97;100.00
38400;BME280;24180;42.676;23.320;2023-03-22T13:44:43;94577.47;;;14.23;100.00
38400;BME280;24180;42.676;23.320;2023-03-22T13:53:05;94589.31;;;13.86;100.00
38400;BME280;24180;42.676;23.320;2023-03-22T13:58:11;94559.63;;;13.56;100.00
38400;BME280;24180;42.676;23.320;2023-03-22T14:01:02;94563.75;;;12.86;100.00
38400;BME280;24180;42.676;23.320;2023-03-22T14:03:31;94576.41;;;12.89;100.00
38400;BME280;24180;42.676;23.320;2023-03-22T14:06:04;94578.03;;;12.16;100.00
38400;BME280;24180;42.676;23.320;2023-03-22T14:08:33;94560.84;;;12.15;100.00
38400;BME280;24180;42.676;23.320;2023-03-22T14:11:52;94539.44;;;12.21;100.00
38400;BME280;24180;42.676;23.320;2023-03-22T14:14:02;94551.91;;;12.09;100.00
38400;BME280;24180;42.676;23.320;2023-03-22T14:19:01;94578.97;;;12.65;100.00
38400;BME280;24180;42.676;23.320;2023-03-22T14:21:34;94571.19;;;12.81;100.00
38400;BME280;24180;42.676;23.320;2023-03-22T14:24:02;94563.25;;;13.07;100.00
38400;BME280;24180;42.676;23.320;2023-03-22T14:26:44;94578.69;;;13.25;100.00
38400;BME280;24180;42.676;23.320;2023-03-22T14:29:18;94579.34;;;13.43;100.00
38400;BME280;24180;42.676;23.320;2023-03-22T14:31:45;94580.47;;;13.32;100.00
38400;BME280;24180;42.676;23.320;2023-03-22T14:34:15;94577.41;;;13.29;100.00